sensor_id;sensor_type;location;lat;lon;timestamp;P1;durP1;ratioP1;P2;durP2;ratioP2
20857;SDS011;10589;53.636;10.012;2023-06-22T03:46:36;6.60;;;5.90;;
20857;SDS011;10589;53.636;10.012;2023-06-22T03:49:01;7.00;;;6.30;;
20857;SDS011;10589;53.636;10.012;2023-06-22T03:51:28;8.98;;;6.82;;
20857;SDS011;10589;53.636;10.012;2023-06-22T03:53:54;7.78;;;6.53;;
20857;SDS011;10589;53.636;10.012;2023-06-22T03:56:19;8.63;;;6.78;;
20857;SDS011;10589;53.636;10.012;2023-06-22T03:58:45;9.15;;;7.97;;
20857;SDS011;10589;53.636;10.012;2023-06-22T04:01:11;9.40;;;8.38;;
20857;SDS011;10589;53.636;10.012;2023-06-22T04:03:37;9.90;;;7.60;;
20857;SDS011;10589;53.636;10.012;2023-06-22T04:06:03;10.35;;;7.28;;
20857;SDS011;10589;53.636;10.012;2023-06-22T04:08:29;8.48;;;7.07;;
20857;SDS011;10589;53.636;10.012;2023-06-22T04:10:55;8.65;;;6.43;;
20857;SDS011;10589;53.636;10.012;2023-06-22T04:13:20;6.60;;;5.53;;
20857;SDS011;10589;53.636;10.012;2023-06-22T04:15:50;6.22;;;5.40;;
20857;SDS011;10589;53.636;10.012;2023-06-22T04:18:16;6.95;;;6.03;;
20857;SDS011;10589;53.636;10.012;2023-06-22T04:20:41;6.40;;;5.55;;
20857;SDS011;10589;53.636;10.012;2023-06-22T04:23:09;6.85;;;6.15;;
20857;SDS011;10589;53.636;10.012;2023-06-22T04:25:35;8.13;;;6.32;;
20857;SDS011;10589;53.636;10.012;2023-06-22T04:28:01;7.22;;;5.90;;
20857;SDS011;10589;53.636;10.012;2023-06-22T04:30:28;10.48;;;7.20;;
20857;SDS011;10589;53.636;10.012;2023-06-22T04:32:53;8.35;;;6.40;;
20857;SDS011;10589;53.636;10.012;2023-06-22T04:35:23;9.00;;;7.35;;
20857;SDS011;10589;53.636;10.012;2023-06-22T04:37:49;8.23;;;6.53;;
20857;SDS011;10589;53.636;10.012;2023-06-22T04:40:15;8.07;;;6.72;;
20857;SDS011;10589;53.636;10.012;2023-06-22T04:42:41;7.32;;;6.32;;
20857;SDS011;10589;53.636;10.012;2023-06-22T04:45:17;7.45;;;6.07;;
20857;SDS011;10589;53.636;10.012;2023-06-22T04:47:42;6.38;;;5.53;;
20857;SDS011;10589;53.636;10.012;2023-06-22T04:50:11;6.10;;;5.05;;
20857;SDS011;10589;53.636;10.012;2023-06-22T04:52:37;8.95;;;6.63;;
20857;SDS011;10589;53.636;10.012;2023-06-22T04:55:03;5.97;;;5.38;;
20857;SDS011;10589;53.636;10.012;2023-06-22T04:57:29;7.53;;;5.43;;
20857;SDS011;10589;53.636;10.012;2023-06-22T05:00:01;5.97;;;5.38;;
20857;SDS011;10589;53.636;10.012;2023-06-22T05:02:36;5.82;;;4.93;;
20857;SDS011;10589;53.636;10.012;2023-06-22T05:05:05;5.13;;;4.63;;
20857;SDS011;10589;53.636;10.012;2023-06-22T05:07:31;9.43;;;5.57;;
20857;SDS011;10589;53.636;10.012;2023-06-22T05:09:58;10.15;;;5.68;;
20857;SDS011;10589;53.636;10.012;2023-06-22T05:12:24;6.40;;;5.13;;
20857;SDS011;10589;53.636;10.012;2023-06-22T05:14:49;6.60;;;5.50;;
20857;SDS011;10589;53.636;10.012;2023-06-22T05:17:15;6.65;;;5.30;;
20857;SDS011;10589;53.636;10.012;2023-06-22T05:19:44;8.05;;;5.22;;
20857;SDS011;10589;53.636;10.012;2023-06-22T05:22:13;6.75;;;5.13;;
20857;SDS011;10589;53.636;10.012;2023-06-22T05:24:42;8.57;;;5.28;;
20857;SDS011;10589;53.636;10.012;2023-06-22T05:27:08;8.32;;;4.85;;
20857;SDS011;10589;53.636;10.012;2023-06-22T05:29:34;6.15;;;5.05;;
20857;SDS011;10589;53.636;10.012;2023-06-22T05:32:00;7.40;;;5.00;;
20857;SDS011;10589;53.636;10.012;2023-06-22T05:34:26;5.63;;;4.28;;
20857;SDS011;10589;53.636;10.012;2023-06-22T05:36:51;6.03;;;4.55;;
20857;SDS011;10589;53.636;10.012;2023-06-22T05:39:17;7.78;;;4.43;;
20857;SDS011;10589;53.636;10.012;2023-06-22T05:41:43;6.45;;;3.90;;
20857;SDS011;10589;53.636;10.012;2023-06-22T05:44:10;4.32;;;3.33;;
20857;SDS011;10589;53.636;10.012;2023-06-22T05:46:35;5.75;;;3.83;;
20857;SDS011;10589;53.636;10.012;2023-06-22T05:49:01;5.97;;;3.60;;
20857;SDS011;10589;53.636;10.012;2023-06-22T05:51:26;4.30;;;2.90;;
20857;SDS011;10589;53.636;10.012;2023-06-22T05:53:52;4.18;;;3.10;;
20857;SDS011;10589;53.636;10.012;2023-06-22T05:56:18;3.50;;;3.00;;
20857;SDS011;10589;53.636;10.012;2023-06-22T05:58:43;5.03;;;3.15;;
20857;SDS011;10589;53.636;10.012;2023-06-22T06:01:11;4.80;;;2.67;;
20857;SDS011;10589;53.636;10.012;2023-06-22T06:03:36;4.22;;;2.70;;
20857;SDS011;10589;53.636;10.012;2023-06-22T06:06:06;3.67;;;2.78;;
20857;SDS011;10589;53.636;10.012;2023-06-22T06:08:32;4.03;;;2.30;;
20857;SDS011;10589;53.636;10.012;2023-06-22T06:10:57;4.90;;;2.63;;
20857;SDS011;10589;53.636;10.012;2023-06-22T06:13:23;2.53;;;2.08;;
20857;SDS011;10589;53.636;10.012;2023-06-22T06:15:49;4.53;;;2.15;;
20857;SDS011;10589;53.636;10.012;2023-06-22T06:18:20;6.18;;;2.20;;
20857;SDS011;10589;53.636;10.012;2023-06-22T06:20:46;4.50;;;2.20;;
20857;SDS011;10589;53.636;10.012;2023-06-22T06:23:11;3.53;;;2.10;;
20857;SDS011;10589;53.636;10.012;2023-06-22T06:25:37;2.55;;;2.15;;
20857;SDS011;10589;53.636;10.012;2023-06-22T06:28:03;7.05;;;2.70;;
20857;SDS011;10589;53.636;10.012;2023-06-22T06:30:28;4.32;;;2.40;;
20857;SDS011;10589;53.636;10.012;2023-06-22T06:32:54;5.22;;;2.22;;
20857;SDS011;10589;53.636;10.012;2023-06-22T06:35:22;3.85;;;2.40;;
20857;SDS011;10589;53.636;10.012;2023-06-22T06:37:50;2.92;;;2.30;;
20857;SDS011;10589;53.636;10.012;2023-06-22T06:40:16;3.35;;;2.22;;
20857;SDS011;10589;53.636;10.012;2023-06-22T06:42:47;6.88;;;2.70;;
20857;SDS011;10589;53.636;10.012;2023-06-22T06:45:25;3.10;;;2.38;;
20857;SDS011;10589;53.636;10.012;2023-06-22T06:47:53;2.53;;;1.95;;
20857;SDS011;10589;53.636;10.012;2023-06-22T06:50:19;4.40;;;2.20;;
20857;SDS011;10589;53.636;10.012;2023-06-22T06:52:45;5.60;;;2.30;;
20857;SDS011;10589;53.636;10.012;2023-06-22T06:55:11;3.50;;;1.80;;
20857;SDS011;10589;53.636;10.012;2023-06-22T06:57:40;3.08;;;2.55;;
20857;SDS011;10589;53.636;10.012;2023-06-22T07:00:07;4.63;;;2.30;;
20857;SDS011;10589;53.636;10.012;2023-06-22T07:02:39;4.43;;;2.47;;
20857;SDS011;10589;53.636;10.012;2023-06-22T07:05:10;2.72;;;2.17;;
20857;SDS011;10589;53.636;10.012;2023-06-22T07:07:37;2.75;;;1.90;;
20857;SDS011;10589;53.636;10.012;2023-06-22T07:10:03;3.10;;;2.45;;
20857;SDS011;10589;53.636;10.012;2023-06-22T07:12:30;3.15;;;2.53;;
20857;SDS011;10589;53.636;10.012;2023-06-22T07:15:08;3.58;;;2.72;;
20857;SDS011;10589;53.636;10.012;2023-06-22T07:17:38;4.30;;;2.83;;
20857;SDS011;10589;53.636;10.012;2023-06-22T07:20:07;4.85;;;2.97;;
20857;SDS011;10589;53.636;10.012;2023-06-22T07:22:43;6.03;;;2.53;;
20857;SDS011;10589;53.636;10.012;2023-06-22T07:25:09;5.93;;;2.67;;
20857;SDS011;10589;53.636;10.012;2023-06-22T07:27:38;3.95;;;2.90;;
20857;SDS011;10589;53.636;10.012;2023-06-22T07:30:08;7.43;;;2.83;;
20857;SDS011;10589;53.636;10.012;2023-06-22T07:32:34;5.80;;;2.97;;
20857;SDS011;10589;53.636;10.012;2023-06-22T07:35:00;5.75;;;2.60;;
20857;SDS011;10589;53.636;10.012;2023-06-22T07:37:27;4.53;;;2.47;;
20857;SDS011;10589;53.636;10.012;2023-06-22T07:39:53;5.47;;;2.65;;
20857;SDS011;10589;53.636;10.012;2023-06-22T07:42:23;3.63;;;2.38;;
20857;SDS011;10589;53.636;10.012;2023-06-22T07:44:52;2.83;;;1.90;;
20857;SDS011;10589;53.636;10.012;2023-06-22T07:47:18;3.15;;;2.28;;
20857;SDS011;10589;53.636;10.012;2023-06-22T07:49:48;2.35;;;1.83;;
20857;SDS011;10589;53.636;10.012;2023-06-22T07:52:13;3.53;;;2.22;;
20857;SDS011;10589;53.636;10.012;2023-06-22T07:54:39;3.03;;;2.30;;
20857;SDS011;10589;53.636;10.012;2023-06-22T07:57:05;3.90;;;2.38;;
20857;SDS011;10589;53.636;10.012;2023-06-22T07:59:30;3.83;;;2.25;;
20857;SDS011;10589;53.636;10.012;2023-06-22T08:01:56;3.63;;;2.25;;
20857;SDS011;10589;53.636;10.012;2023-06-22T08:04:22;2.55;;;1.95;;
20857;SDS011;10589;53.636;10.012;2023-06-22T08:06:47;4.22;;;2.20;;
20857;SDS011;10589;53.636;10.012;2023-06-22T08:09:14;3.50;;;2.13;;
20857;SDS011;10589;53.636;10.012;2023-06-22T08:11:39;4.78;;;2.40;;
20857;SDS011;10589;53.636;10.012;2023-06-22T08:14:05;2.40;;;2.03;;
20857;SDS011;10589;53.636;10.012;2023-06-22T08:16:31;4.95;;;2.38;;
20857;SDS011;10589;53.636;10.012;2023-06-22T08:18:56;2.88;;;2.25;;
20857;SDS011;10589;53.636;10.012;2023-06-22T08:21:22;2.88;;;1.83;;
20857;SDS011;10589;53.636;10.012;2023-06-22T08:23:48;3.67;;;2.53;;
20857;SDS011;10589;53.636;10.012;2023-06-22T08:26:14;2.20;;;1.80;;
20857;SDS011;10589;53.636;10.012;2023-06-22T08:28:42;4.35;;;2.33;;
20857;SDS011;10589;53.636;10.012;2023-06-22T08:31:07;3.55;;;2.10;;
20857;SDS011;10589;53.636;10.012;2023-06-22T08:33:33;4.95;;;2.30;;
20857;SDS011;10589;53.636;10.012;2023-06-22T08:35:59;3.00;;;1.83;;
20857;SDS011;10589;53.636;10.012;2023-06-22T08:38:25;4.20;;;2.30;;
20857;SDS011;10589;53.636;10.012;2023-06-22T08:40:51;3.65;;;2.05;;
20857;SDS011;10589;53.636;10.012;2023-06-22T08:43:16;3.05;;;2.10;;
20857;SDS011;10589;53.636;10.012;2023-06-22T08:45:42;2.47;;;1.98;;
20857;SDS011;10589;53.636;10.012;2023-06-22T08:48:07;3.35;;;2.03;;
20857;SDS011;10589;53.636;10.012;2023-06-22T08:50:33;3.95;;;2.05;;
20857;SDS011;10589;53.636;10.012;2023-06-22T08:53:00;5.13;;;2.00;;
20857;SDS011;10589;53.636;10.012;2023-06-22T08:55:25;3.58;;;1.80;;
20857;SDS011;10589;53.636;10.012;2023-06-22T08:57:51;2.78;;;2.10;;
20857;SDS011;10589;53.636;10.012;2023-06-22T09:00:16;3.83;;;2.05;;
20857;SDS011;10589;53.636;10.012;2023-06-22T09:02:45;2.63;;;1.77;;
20857;SDS011;10589;53.636;10.012;2023-06-22T09:05:12;4.07;;;1.75;;
20857;SDS011;10589;53.636;10.012;2023-06-22T09:07:38;3.75;;;2.10;;
20857;SDS011;10589;53.636;10.012;2023-06-22T09:10:05;3.05;;;1.75;;
20857;SDS011;10589;53.636;10.012;2023-06-22T09:12:32;6.05;;;2.55;;
20857;SDS011;10589;53.636;10.012;2023-06-22T09:15:01;4.38;;;2.25;;
20857;SDS011;10589;53.636;10.012;2023-06-22T09:17:27;5.55;;;1.77;;
20857;SDS011;10589;53.636;10.012;2023-06-22T09:19:53;2.30;;;1.75;;
20857;SDS011;10589;53.636;10.012;2023-06-22T09:22:19;2.35;;;1.58;;
20857;SDS011;10589;53.636;10.012;2023-06-22T09:24:45;3.70;;;2.17;;
20857;SDS011;10589;53.636;10.012;2023-06-22T09:27:11;2.72;;;1.98;;
20857;SDS011;10589;53.636;10.012;2023-06-22T09:29:37;3.53;;;1.70;;
20857;SDS011;10589;53.636;10.012;2023-06-22T09:32:03;4.03;;;2.08;;
20857;SDS011;10589;53.636;10.012;2023-06-22T09:34:29;2.38;;;2.00;;
20857;SDS011;10589;53.636;10.012;2023-06-22T09:36:56;3.58;;;2.25;;
20857;SDS011;10589;53.636;10.012;2023-06-22T09:39:22;3.33;;;2.22;;
20857;SDS011;10589;53.636;10.012;2023-06-22T09:42:03;3.65;;;2.30;;
20857;SDS011;10589;53.636;10.012;2023-06-22T09:44:31;5.97;;;2.60;;
20857;SDS011;10589;53.636;10.012;2023-06-22T09:46:56;5.78;;;2.63;;
20857;SDS011;10589;53.636;10.012;2023-06-22T09:49:22;4.43;;;3.17;;
20857;SDS011;10589;53.636;10.012;2023-06-22T09:51:48;2.95;;;2.00;;
20857;SDS011;10589;53.636;10.012;2023-06-22T09:54:15;2.67;;;2.20;;
20857;SDS011;10589;53.636;10.012;2023-06-22T09:56:41;4.25;;;2.60;;
20857;SDS011;10589;53.636;10.012;2023-06-22T09:59:09;2.72;;;1.98;;
20857;SDS011;10589;53.636;10.012;2023-06-22T10:01:34;3.10;;;2.22;;
20857;SDS011;10589;53.636;10.012;2023-06-22T10:04:01;2.97;;;2.25;;
20857;SDS011;10589;53.636;10.012;2023-06-22T10:06:27;4.47;;;2.45;;
20857;SDS011;10589;53.636;10.012;2023-06-22T10:08:53;4.65;;;2.03;;
20857;SDS011;10589;53.636;10.012;2023-06-22T10:11:18;3.45;;;2.30;;
20857;SDS011;10589;53.636;10.012;2023-06-22T10:13:44;6.75;;;1.88;;
20857;SDS011;10589;53.636;10.012;2023-06-22T10:16:10;3.40;;;1.98;;
20857;SDS011;10589;53.636;10.012;2023-06-22T10:18:35;4.07;;;2.00;;
20857;SDS011;10589;53.636;10.012;2023-06-22T10:21:01;4.45;;;1.98;;
20857;SDS011;10589;53.636;10.012;2023-06-22T10:23:27;3.78;;;2.10;;
20857;SDS011;10589;53.636;10.012;2023-06-22T10:25:53;4.03;;;2.35;;
20857;SDS011;10589;53.636;10.012;2023-06-22T10:28:18;2.53;;;1.92;;
20857;SDS011;10589;53.636;10.012;2023-06-22T10:30:44;3.38;;;2.70;;
20857;SDS011;10589;53.636;10.012;2023-06-22T10:33:10;4.55;;;2.65;;
20857;SDS011;10589;53.636;10.012;2023-06-22T10:35:36;3.25;;;2.22;;
20857;SDS011;10589;53.636;10.012;2023-06-22T10:38:03;4.72;;;2.20;;
20857;SDS011;10589;53.636;10.012;2023-06-22T10:40:30;5.85;;;2.85;;
20857;SDS011;10589;53.636;10.012;2023-06-22T10:45:28;2.10;;;1.83;;
20857;SDS011;10589;53.636;10.012;2023-06-22T10:47:54;4.78;;;2.40;;
20857;SDS011;10589;53.636;10.012;2023-06-22T10:50:19;2.83;;;2.40;;
20857;SDS011;10589;53.636;10.012;2023-06-22T10:52:45;3.35;;;2.25;;
20857;SDS011;10589;53.636;10.012;2023-06-22T10:55:10;3.05;;;2.35;;
20857;SDS011;10589;53.636;10.012;2023-06-22T10:57:43;2.97;;;2.38;;
20857;SDS011;10589;53.636;10.012;2023-06-22T11:00:12;3.13;;;1.90;;
20857;SDS011;10589;53.636;10.012;2023-06-22T11:02:39;2.90;;;2.08;;
20857;SDS011;10589;53.636;10.012;2023-06-22T11:05:05;5.30;;;2.80;;
20857;SDS011;10589;53.636;10.012;2023-06-22T11:07:31;3.47;;;2.53;;
20857;SDS011;10589;53.636;10.012;2023-06-22T11:09:58;3.13;;;2.70;;
20857;SDS011;10589;53.636;10.012;2023-06-22T11:12:26;3.47;;;2.53;;
20857;SDS011;10589;53.636;10.012;2023-06-22T11:14:52;3.83;;;2.80;;
20857;SDS011;10589;53.636;10.012;2023-06-22T11:17:18;3.28;;;2.65;;
20857;SDS011;10589;53.636;10.012;2023-06-22T11:19:44;4.00;;;2.40;;
20857;SDS011;10589;53.636;10.012;2023-06-22T11:22:10;3.38;;;1.98;;
20857;SDS011;10589;53.636;10.012;2023-06-22T11:24:35;2.97;;;2.20;;
20857;SDS011;10589;53.636;10.012;2023-06-22T11:27:01;5.22;;;2.97;;
20857;SDS011;10589;53.636;10.012;2023-06-22T11:29:27;4.85;;;2.65;;
20857;SDS011;10589;53.636;10.012;2023-06-22T11:31:52;3.92;;;2.58;;
20857;SDS011;10589;53.636;10.012;2023-06-22T11:34:18;3.92;;;2.92;;
20857;SDS011;10589;53.636;10.012;2023-06-22T11:36:44;3.35;;;3.05;;
20857;SDS011;10589;53.636;10.012;2023-06-22T11:39:10;2.35;;;2.15;;
20857;SDS011;10589;53.636;10.012;2023-06-22T11:41:36;4.68;;;3.05;;
20857;SDS011;10589;53.636;10.012;2023-06-22T11:44:03;3.15;;;2.38;;
20857;SDS011;10589;53.636;10.012;2023-06-22T11:46:29;4.43;;;2.70;;
20857;SDS011;10589;53.636;10.012;2023-06-22T11:48:57;4.65;;;2.58;;
20857;SDS011;10589;53.636;10.012;2023-06-22T11:51:22;3.70;;;2.80;;
20857;SDS011;10589;53.636;10.012;2023-06-22T11:53:48;3.55;;;2.85;;
20857;SDS011;10589;53.636;10.012;2023-06-22T11:56:13;6.10;;;3.20;;
20857;SDS011;10589;53.636;10.012;2023-06-22T11:58:40;3.20;;;2.60;;
20857;SDS011;10589;53.636;10.012;2023-06-22T12:01:06;5.68;;;3.05;;
20857;SDS011;10589;53.636;10.012;2023-06-22T12:03:31;3.92;;;2.95;;
20857;SDS011;10589;53.636;10.012;2023-06-22T12:05:59;3.65;;;2.95;;
20857;SDS011;10589;53.636;10.012;2023-06-22T12:08:25;5.22;;;2.90;;
20857;SDS011;10589;53.636;10.012;2023-06-22T12:10:50;4.95;;;3.00;;
20857;SDS011;10589;53.636;10.012;2023-06-22T12:13:16;4.35;;;2.50;;
20857;SDS011;10589;53.636;10.012;2023-06-22T12:15:42;3.10;;;2.35;;
20857;SDS011;10589;53.636;10.012;2023-06-22T12:18:08;4.93;;;2.50;;
20857;SDS011;10589;53.636;10.012;2023-06-22T12:20:34;4.75;;;3.20;;
20857;SDS011;10589;53.636;10.012;2023-06-22T12:22:59;3.00;;;2.70;;
20857;SDS011;10589;53.636;10.012;2023-06-22T12:25:25;3.83;;;2.63;;
20857;SDS011;10589;53.636;10.012;2023-06-22T12:27:50;6.95;;;3.22;;
20857;SDS011;10589;53.636;10.012;2023-06-22T12:30:16;5.70;;;3.00;;
20857;SDS011;10589;53.636;10.012;2023-06-22T12:32:42;3.65;;;2.95;;
20857;SDS011;10589;53.636;10.012;2023-06-22T12:35:09;3.22;;;2.70;;
20857;SDS011;10589;53.636;10.012;2023-06-22T12:37:39;3.97;;;2.78;;
20857;SDS011;10589;53.636;10.012;2023-06-22T12:40:06;3.17;;;2.88;;
20857;SDS011;10589;53.636;10.012;2023-06-22T12:45:01;3.80;;;2.78;;
20857;SDS011;10589;53.636;10.012;2023-06-22T12:47:27;4.85;;;3.33;;
20857;SDS011;10589;53.636;10.012;2023-06-22T12:49:53;4.78;;;2.80;;
20857;SDS011;10589;53.636;10.012;2023-06-22T12:52:18;5.57;;;3.80;;
20857;SDS011;10589;53.636;10.012;2023-06-22T12:54:44;3.75;;;3.40;;
20857;SDS011;10589;53.636;10.012;2023-06-22T12:57:11;5.47;;;3.10;;
20857;SDS011;10589;53.636;10.012;2023-06-22T12:59:36;5.85;;;2.78;;
20857;SDS011;10589;53.636;10.012;2023-06-22T13:02:02;3.97;;;3.60;;
20857;SDS011;10589;53.636;10.012;2023-06-22T13:04:27;3.20;;;3.00;;
20857;SDS011;10589;53.636;10.012;2023-06-22T13:06:53;3.33;;;3.03;;
20857;SDS011;10589;53.636;10.012;2023-06-22T13:09:20;4.10;;;3.42;;
20857;SDS011;10589;53.636;10.012;2023-06-22T13:11:45;3.75;;;3.33;;
20857;SDS011;10589;53.636;10.012;2023-06-22T13:14:11;5.25;;;3.80;;
20857;SDS011;10589;53.636;10.012;2023-06-22T13:16:37;4.50;;;3.40;;
20857;SDS011;10589;53.636;10.012;2023-06-22T13:19:02;3.50;;;3.20;;
20857;SDS011;10589;53.636;10.012;2023-06-22T13:21:28;3.63;;;3.33;;
20857;SDS011;10589;53.636;10.012;2023-06-22T13:23:55;3.13;;;2.55;;
20857;SDS011;10589;53.636;10.012;2023-06-22T13:26:20;3.42;;;3.13;;
20857;SDS011;10589;53.636;10.012;2023-06-22T13:28:47;4.38;;;3.47;;
20857;SDS011;10589;53.636;10.012;2023-06-22T13:31:12;4.68;;;2.97;;
20857;SDS011;10589;53.636;10.012;2023-06-22T13:33:38;4.40;;;3.65;;
20857;SDS011;10589;53.636;10.012;2023-06-22T13:36:05;4.35;;;3.53;;
20857;SDS011;10589;53.636;10.012;2023-06-22T13:38:32;7.13;;;2.60;;
20857;SDS011;10589;53.636;10.012;2023-06-22T13:40:58;3.33;;;3.00;;
20857;SDS011;10589;53.636;10.012;2023-06-22T13:43:24;3.67;;;3.30;;
20857;SDS011;10589;53.636;10.012;2023-06-22T13:45:51;5.88;;;3.15;;
20857;SDS011;10589;53.636;10.012;2023-06-22T13:48:17;4.65;;;3.42;;
20857;SDS011;10589;53.636;10.012;2023-06-22T13:50:43;4.32;;;3.60;;
20857;SDS011;10589;53.636;10.012;2023-06-22T13:53:08;3.40;;;3.10;;
20857;SDS011;10589;53.636;10.012;2023-06-22T13:55:34;4.70;;;3.28;;
20857;SDS011;10589;53.636;10.012;2023-06-22T13:57:59;3.60;;;3.30;;
20857;SDS011;10589;53.636;10.012;2023-06-22T14:00:25;4.85;;;3.25;;
20857;SDS011;10589;53.636;10.012;2023-06-22T14:02:52;4.75;;;3.50;;
20857;SDS011;10589;53.636;10.012;2023-06-22T14:05:18;5.38;;;3.45;;
20857;SDS011;10589;53.636;10.012;2023-06-22T14:07:44;4.65;;;3.00;;
20857;SDS011;10589;53.636;10.012;2023-06-22T14:10:10;5.45;;;2.80;;
20857;SDS011;10589;53.636;10.012;2023-06-22T14:12:35;3.45;;;3.15;;
20857;SDS011;10589;53.636;10.012;2023-06-22T14:15:01;5.50;;;3.70;;
20857;SDS011;10589;53.636;10.012;2023-06-22T14:17:26;5.72;;;3.42;;
20857;SDS011;10589;53.636;10.012;2023-06-22T14:19:52;3.88;;;3.47;;
20857;SDS011;10589;53.636;10.012;2023-06-22T14:22:21;5.97;;;3.47;;
20857;SDS011;10589;53.636;10.012;2023-06-22T14:24:47;4.97;;;3.90;;
20857;SDS011;10589;53.636;10.012;2023-06-22T14:27:14;4.15;;;3.75;;
20857;SDS011;10589;53.636;10.012;2023-06-22T14:29:39;4.18;;;3.78;;
20857;SDS011;10589;53.636;10.012;2023-06-22T14:32:06;4.20;;;3.75;;
20857;SDS011;10589;53.636;10.012;2023-06-22T14:34:32;3.03;;;2.80;;
20857;SDS011;10589;53.636;10.012;2023-06-22T14:37:00;4.65;;;3.55;;
20857;SDS011;10589;53.636;10.012;2023-06-22T14:39:30;3.30;;;3.00;;
20857;SDS011;10589;53.636;10.012;2023-06-22T14:41:55;3.85;;;3.50;;
20857;SDS011;10589;53.636;10.012;2023-06-22T14:44:21;3.35;;;3.05;;
20857;SDS011;10589;53.636;10.012;2023-06-22T14:46:47;5.60;;;3.28;;
20857;SDS011;10589;53.636;10.012;2023-06-22T14:49:12;4.93;;;3.13;;
20857;SDS011;10589;53.636;10.012;2023-06-22T14:51:38;4.90;;;3.47;;
20857;SDS011;10589;53.636;10.012;2023-06-22T14:54:03;4.00;;;3.65;;
20857;SDS011;10589;53.636;10.012;2023-06-22T14:56:29;4.28;;;3.13;;
20857;SDS011;10589;53.636;10.012;2023-06-22T14:58:54;4.28;;;3.40;;
20857;SDS011;10589;53.636;10.012;2023-06-22T15:01:20;4.07;;;3.67;;
20857;SDS011;10589;53.636;10.012;2023-06-22T15:03:46;4.40;;;3.72;;
20857;SDS011;10589;53.636;10.012;2023-06-22T15:06:12;4.43;;;3.65;;
20857;SDS011;10589;53.636;10.012;2023-06-22T15:08:38;3.95;;;3.60;;
20857;SDS011;10589;53.636;10.012;2023-06-22T15:11:04;7.40;;;3.80;;
20857;SDS011;10589;53.636;10.012;2023-06-22T15:13:30;4.53;;;3.75;;
20857;SDS011;10589;53.636;10.012;2023-06-22T15:16:01;3.92;;;3.17;;
20857;SDS011;10589;53.636;10.012;2023-06-22T15:18:28;4.47;;;4.07;;
20857;SDS011;10589;53.636;10.012;2023-06-22T15:20:54;4.53;;;3.45;;
20857;SDS011;10589;53.636;10.012;2023-06-22T15:23:20;6.05;;;3.50;;
20857;SDS011;10589;53.636;10.012;2023-06-22T15:25:45;4.15;;;3.53;;
20857;SDS011;10589;53.636;10.012;2023-06-22T15:28:11;4.95;;;3.45;;
20857;SDS011;10589;53.636;10.012;2023-06-22T15:30:37;3.67;;;3.38;;
20857;SDS011;10589;53.636;10.012;2023-06-22T15:33:04;4.07;;;3.45;;
20857;SDS011;10589;53.636;10.012;2023-06-22T15:35:30;4.82;;;3.38;;
20857;SDS011;10589;53.636;10.012;2023-06-22T15:37:55;3.75;;;3.40;;
20857;SDS011;10589;53.636;10.012;2023-06-22T15:40:22;5.35;;;3.58;;
20857;SDS011;10589;53.636;10.012;2023-06-22T15:42:50;3.92;;;3.22;;
20857;SDS011;10589;53.636;10.012;2023-06-22T15:45:16;3.90;;;3.47;;
20857;SDS011;10589;53.636;10.012;2023-06-22T15:47:42;4.97;;;3.72;;
20857;SDS011;10589;53.636;10.012;2023-06-22T15:50:07;5.20;;;3.45;;
20857;SDS011;10589;53.636;10.012;2023-06-22T15:52:33;5.78;;;3.10;;
20857;SDS011;10589;53.636;10.012;2023-06-22T15:54:59;3.65;;;3.05;;
20857;SDS011;10589;53.636;10.012;2023-06-22T15:57:25;3.90;;;3.00;;
20857;SDS011;10589;53.636;10.012;2023-06-22T15:59:52;4.70;;;2.92;;
20857;SDS011;10589;53.636;10.012;2023-06-22T16:02:18;3.65;;;2.55;;
20857;SDS011;10589;53.636;10.012;2023-06-22T16:04:43;10.35;;;2.85;;
20857;SDS011;10589;53.636;10.012;2023-06-22T16:07:09;2.83;;;2.42;;
20857;SDS011;10589;53.636;10.012;2023-06-22T16:09:36;3.25;;;2.10;;
20857;SDS011;10589;53.636;10.012;2023-06-22T16:12:02;4.72;;;2.50;;
20857;SDS011;10589;53.636;10.012;2023-06-22T16:14:28;4.38;;;2.85;;
20857;SDS011;10589;53.636;10.012;2023-06-22T16:16:54;5.57;;;3.67;;
20857;SDS011;10589;53.636;10.012;2023-06-22T16:19:20;2.30;;;2.10;;
20857;SDS011;10589;53.636;10.012;2023-06-22T16:21:46;4.10;;;2.65;;
20857;SDS011;10589;53.636;10.012;2023-06-22T16:24:11;4.15;;;2.25;;
20857;SDS011;10589;53.636;10.012;2023-06-22T16:26:40;5.82;;;2.55;;
20857;SDS011;10589;53.636;10.012;2023-06-22T16:29:08;3.70;;;2.50;;
20857;SDS011;10589;53.636;10.012;2023-06-22T16:31:34;2.83;;;2.33;;
20857;SDS011;10589;53.636;10.012;2023-06-22T16:34:00;3.63;;;2.50;;
20857;SDS011;10589;53.636;10.012;2023-06-22T16:36:27;4.68;;;2.47;;
20857;SDS011;10589;53.636;10.012;2023-06-22T16:38:52;4.07;;;2.60;;
20857;SDS011;10589;53.636;10.012;2023-06-22T16:41:18;4.32;;;2.75;;
20857;SDS011;10589;53.636;10.012;2023-06-22T16:43:44;3.67;;;2.40;;
20857;SDS011;10589;53.636;10.012;2023-06-22T16:46:10;4.18;;;2.50;;
20857;SDS011;10589;53.636;10.012;2023-06-22T16:48:36;4.20;;;2.42;;
20857;SDS011;10589;53.636;10.012;2023-06-22T16:51:02;3.80;;;2.35;;
20857;SDS011;10589;53.636;10.012;2023-06-22T16:53:28;4.55;;;2.20;;
20857;SDS011;10589;53.636;10.012;2023-06-22T16:55:54;3.15;;;2.22;;
20857;SDS011;10589;53.636;10.012;2023-06-22T16:58:20;4.25;;;2.05;;
20857;SDS011;10589;53.636;10.012;2023-06-22T17:00:50;4.97;;;2.30;;
20857;SDS011;10589;53.636;10.012;2023-06-22T17:03:20;2.40;;;2.20;;
20857;SDS011;10589;53.636;10.012;2023-06-22T17:05:55;5.65;;;2.55;;
20857;SDS011;10589;53.636;10.012;2023-06-22T17:08:21;4.32;;;2.22;;
20857;SDS011;10589;53.636;10.012;2023-06-22T17:10:49;3.55;;;2.50;;
20857;SDS011;10589;53.636;10.012;2023-06-22T17:13:15;3.72;;;2.70;;
20857;SDS011;10589;53.636;10.012;2023-06-22T17:15:41;3.85;;;2.63;;
20857;SDS011;10589;53.636;10.012;2023-06-22T17:18:07;3.10;;;2.50;;
20857;SDS011;10589;53.636;10.012;2023-06-22T17:20:34;2.63;;;2.20;;
20857;SDS011;10589;53.636;10.012;2023-06-22T17:22:59;5.53;;;2.75;;
20857;SDS011;10589;53.636;10.012;2023-06-22T17:25:26;3.67;;;3.22;;
20857;SDS011;10589;53.636;10.012;2023-06-22T17:28:00;3.25;;;2.72;;
20857;SDS011;10589;53.636;10.012;2023-06-22T17:30:27;4.90;;;2.75;;
20857;SDS011;10589;53.636;10.012;2023-06-22T17:32:53;2.80;;;2.50;;
20857;SDS011;10589;53.636;10.012;2023-06-22T17:35:19;5.60;;;2.60;;
20857;SDS011;10589;53.636;10.012;2023-06-22T17:37:46;3.97;;;2.30;;
20857;SDS011;10589;53.636;10.012;2023-06-22T17:40:23;4.13;;;2.25;;
20857;SDS011;10589;53.636;10.012;2023-06-22T17:42:51;4.05;;;2.55;;
20857;SDS011;10589;53.636;10.012;2023-06-22T17:45:20;2.88;;;1.90;;
20857;SDS011;10589;53.636;10.012;2023-06-22T17:47:47;2.55;;;1.90;;
20857;SDS011;10589;53.636;10.012;2023-06-22T17:50:17;3.38;;;2.15;;
20857;SDS011;10589;53.636;10.012;2023-06-22T17:55:22;5.15;;;1.90;;
20857;SDS011;10589;53.636;10.012;2023-06-22T17:57:48;3.90;;;1.45;;
20857;SDS011;10589;53.636;10.012;2023-06-22T18:00:19;3.03;;;1.75;;
20857;SDS011;10589;53.636;10.012;2023-06-22T18:02:45;4.50;;;1.90;;
20857;SDS011;10589;53.636;10.012;2023-06-22T18:05:10;3.05;;;1.80;;
20857;SDS011;10589;53.636;10.012;2023-06-22T18:07:37;4.28;;;1.88;;
20857;SDS011;10589;53.636;10.012;2023-06-22T18:10:03;3.78;;;1.80;;
20857;SDS011;10589;53.636;10.012;2023-06-22T18:12:30;6.28;;;1.80;;
20857;SDS011;10589;53.636;10.012;2023-06-22T18:14:56;3.88;;;1.88;;
20857;SDS011;10589;53.636;10.012;2023-06-22T18:17:22;4.15;;;1.70;;
20857;SDS011;10589;53.636;10.012;2023-06-22T18:19:50;5.63;;;1.90;;
20857;SDS011;10589;53.636;10.012;2023-06-22T18:22:16;2.42;;;1.80;;